createdAt,value
2018-05-10T00:00:16.063Z,999.18
2018-05-10T00:01:24.713Z,999.14
2018-05-10T00:02:33.356Z,999.18
2018-05-10T00:03:42.104Z,999.14
2018-05-10T00:04:50.651Z,999.17
2018-05-10T00:05:59.302Z,999.15
2018-05-10T00:07:07.939Z,999.15
2018-05-10T00:08:16.588Z,999.17
2018-05-10T00:09:25.515Z,999.16
2018-05-10T00:10:34.418Z,999.15
2018-05-10T00:11:43.062Z,999.22
2018-05-10T00:12:51.712Z,999.17
2018-05-10T00:14:00.354Z,999.13
2018-05-10T00:15:09.008Z,999.15
2018-05-10T00:16:17.653Z,999.13
2018-05-10T00:17:26.297Z,999.1
2018-05-10T00:18:34.945Z,999.1
2018-05-10T00:19:43.587Z,999.09
2018-05-10T00:20:52.239Z,999.13
2018-05-10T00:22:00.885Z,999.1
2018-05-10T00:23:09.534Z,999.1
2018-05-10T00:24:18.209Z,999.05
2018-05-10T00:25:27.888Z,999.08
2018-05-10T00:26:36.535Z,999.04
2018-05-10T00:27:45.180Z,999.09
2018-05-10T00:28:54.090Z,999.07
2018-05-10T00:30:02.743Z,999.05
2018-05-10T00:31:11.387Z,999.06
2018-05-10T00:32:20.037Z,999.04
2018-05-10T00:33:28.680Z,998.99
2018-05-10T00:34:37.337Z,998.99
2018-05-10T00:35:46.252Z,998.95
2018-05-10T00:36:54.900Z,998.94
2018-05-10T00:38:03.551Z,998.96
2018-05-10T00:39:12.195Z,998.97
2018-05-10T00:40:20.846Z,998.96
2018-05-10T00:41:29.493Z,998.94
2018-05-10T00:42:38.682Z,998.94
2018-05-10T00:43:47.323Z,998.96
2018-05-10T00:44:55.969Z,998.97
2018-05-10T00:46:04.616Z,998.95
2018-05-10T00:47:13.266Z,998.95
2018-05-10T00:48:21.907Z,998.94
2018-05-10T00:49:30.835Z,998.95
2018-05-10T00:50:39.482Z,998.96
2018-05-10T00:51:48.403Z,998.93
2018-05-10T00:52:57.046Z,998.93
2018-05-10T00:54:05.693Z,998.93
2018-05-10T00:55:14.339Z,998.94
2018-05-10T00:56:22.992Z,998.96
2018-05-10T00:57:31.637Z,998.91
2018-05-10T00:58:40.286Z,998.94
2018-05-10T00:59:48.932Z,998.93
2018-05-10T01:00:57.844Z,998.91
2018-05-10T01:02:06.494Z,998.92
2018-05-10T01:03:15.141Z,998.91
2018-05-10T01:04:23.790Z,998.93
2018-05-10T01:05:32.430Z,998.89
2018-05-10T01:06:41.082Z,998.91
2018-05-10T01:07:49.993Z,998.91
2018-05-10T01:08:58.641Z,998.91
2018-05-10T01:10:07.296Z,998.9
2018-05-10T01:11:16.476Z,998.91
2018-05-10T01:12:25.122Z,998.94
2018-05-10T01:13:33.760Z,998.93
2018-05-10T01:14:42.408Z,998.95
2018-05-10T01:15:51.064Z,998.96
2018-05-10T01:16:59.712Z,998.96
2018-05-10T01:18:08.359Z,999
2018-05-10T01:19:17.004Z,998.98
2018-05-10T01:20:25.656Z,998.97
2018-05-10T01:21:34.308Z,998.91
2018-05-10T01:22:43.218Z,998.94
2018-05-10T01:23:51.861Z,998.94
2018-05-10T01:25:00.512Z,998.9
2018-05-10T01:26:09.158Z,998.91
2018-05-10T01:27:17.805Z,998.85
2018-05-10T01:28:26.497Z,998.9
2018-05-10T01:29:35.407Z,998.89
2018-05-10T01:30:44.055Z,998.92
2018-05-10T01:31:52.704Z,998.94
2018-05-10T01:33:01.359Z,998.97
2018-05-10T01:34:10.264Z,999.04
2018-05-10T01:35:18.914Z,999.03
2018-05-10T01:36:27.559Z,999.07
2018-05-10T01:37:36.213Z,999.05
2018-05-10T01:38:44.855Z,999.05
2018-05-10T01:39:53.504Z,999.03
2018-05-10T01:41:02.150Z,999.05
2018-05-10T01:42:10.801Z,999.01
2018-05-10T01:43:19.446Z,998.97
2018-05-10T01:44:28.096Z,999
2018-05-10T01:45:36.748Z,999.02
2018-05-10T01:46:45.666Z,999
2018-05-10T01:47:54.309Z,998.99
2018-05-10T01:49:03.032Z,998.96
2018-05-10T01:50:11.599Z,999.01
2018-05-10T01:51:20.242Z,999.04
2018-05-10T01:52:28.897Z,999.02
2018-05-10T01:53:37.543Z,999.02
2018-05-10T01:54:46.187Z,999.04
2018-05-10T01:55:54.826Z,999.08
2018-05-10T01:57:03.737Z,999.05
2018-05-10T01:58:12.385Z,999.05
2018-05-10T01:59:21.030Z,999.03
2018-05-10T02:00:29.669Z,999.03
2018-05-10T02:01:38.319Z,998.99
2018-05-10T02:02:46.963Z,999.03
2018-05-10T02:03:55.611Z,999
2018-05-10T02:05:04.252Z,999.01
2018-05-10T02:06:12.899Z,998.99
2018-05-10T02:07:21.547Z,998.94
2018-05-10T02:08:30.200Z,998.92
2018-05-10T02:09:38.849Z,998.93
2018-05-10T02:10:47.483Z,998.96
2018-05-10T02:11:56.394Z,998.95
2018-05-10T02:13:05.310Z,998.95
2018-05-10T02:14:13.964Z,998.99
2018-05-10T02:15:22.862Z,999
2018-05-10T02:16:31.512Z,998.96
2018-05-10T02:17:40.153Z,998.99
2018-05-10T02:18:48.814Z,998.97
2018-05-10T02:19:57.447Z,999
2018-05-10T02:21:06.106Z,998.96
2018-05-10T02:22:14.752Z,998.97
2018-05-10T02:23:23.404Z,998.96
2018-05-10T02:24:32.048Z,998.96
2018-05-10T02:25:40.956Z,998.99
2018-05-10T02:26:49.872Z,998.98
2018-05-10T02:27:58.517Z,998.94
2018-05-10T02:29:07.172Z,999.01
2018-05-10T02:30:15.816Z,998.98
2018-05-10T02:31:24.468Z,998.96
2018-05-10T02:32:33.110Z,998.99
2018-05-10T02:33:41.777Z,998.95
2018-05-10T02:34:50.685Z,998.98
2018-05-10T02:35:59.600Z,998.97
2018-05-10T02:37:08.243Z,998.99
2018-05-10T02:38:17.163Z,998.95
2018-05-10T02:39:25.810Z,998.96
2018-05-10T02:40:34.731Z,999
2018-05-10T02:41:43.636Z,999.04
2018-05-10T02:42:52.566Z,999.03
2018-05-10T02:44:01.770Z,999.09
2018-05-10T02:45:10.430Z,999.09
2018-05-10T02:46:19.079Z,999.11
2018-05-10T02:47:27.984Z,999.13
2018-05-10T02:48:36.634Z,999.17
2018-05-10T02:49:45.536Z,999.21
2018-05-10T02:50:54.190Z,999.23
2018-05-10T02:52:03.100Z,999.21
2018-05-10T02:53:11.750Z,999.25
2018-05-10T02:54:20.393Z,999.32
2018-05-10T02:55:29.319Z,999.34
2018-05-10T02:56:37.965Z,999.36
2018-05-10T02:57:46.611Z,999.37
2018-05-10T02:58:55.255Z,999.36
2018-05-10T03:00:04.198Z,999.36
2018-05-10T03:01:12.829Z,999.36
2018-05-10T03:02:21.469Z,999.38
2018-05-10T03:03:30.113Z,999.45
2018-05-10T03:04:38.757Z,999.45
2018-05-10T03:05:47.688Z,999.49
2018-05-10T03:06:56.330Z,999.55
2018-05-10T03:08:05.259Z,999.61
2018-05-10T03:09:14.161Z,999.58
2018-05-10T03:10:22.819Z,999.59
2018-05-10T03:11:31.729Z,999.65
2018-05-10T03:12:40.380Z,999.66
2018-05-10T03:13:49.017Z,999.73
2018-05-10T03:14:57.684Z,999.73
2018-05-10T03:16:06.877Z,999.71
2018-05-10T03:17:15.520Z,999.7
2018-05-10T03:18:24.430Z,999.73
2018-05-10T03:19:33.085Z,999.71
2018-05-10T03:20:41.730Z,999.72
2018-05-10T03:21:50.377Z,999.72
2018-05-10T03:22:59.024Z,999.75
2018-05-10T03:24:07.664Z,999.72
2018-05-10T03:25:16.317Z,999.67
2018-05-10T03:26:24.956Z,999.65
2018-05-10T03:27:33.910Z,999.64
2018-05-10T03:28:42.548Z,999.65
2018-05-10T03:29:51.198Z,999.63
2018-05-10T03:30:59.841Z,999.61
2018-05-10T03:32:08.782Z,999.63
2018-05-10T03:33:17.493Z,999.61
2018-05-10T03:34:26.068Z,999.59
2018-05-10T03:35:34.712Z,999.63
2018-05-10T03:36:43.369Z,999.63
2018-05-10T03:37:52.279Z,999.61
2018-05-10T03:39:00.919Z,999.62
2018-05-10T03:40:09.562Z,999.6
2018-05-10T03:41:18.206Z,999.64
2018-05-10T03:42:26.860Z,999.64
2018-05-10T03:43:35.763Z,999.65
2018-05-10T03:44:44.414Z,999.63
2018-05-10T03:45:53.509Z,999.67
2018-05-10T03:47:02.428Z,999.64
2018-05-10T03:48:11.332Z,999.63
2018-05-10T03:49:19.983Z,999.65
2018-05-10T03:50:28.624Z,999.68
2018-05-10T03:51:37.285Z,999.71
2018-05-10T03:52:45.919Z,999.68
2018-05-10T03:53:54.825Z,999.78
2018-05-10T03:55:03.463Z,999.76
2018-05-10T03:56:12.108Z,999.79
2018-05-10T03:57:20.757Z,999.81
2018-05-10T03:58:29.670Z,999.92
2018-05-10T03:59:38.319Z,999.97
2018-05-10T04:00:47.222Z,999.97
2018-05-10T04:01:55.870Z,1000.02
2018-05-10T04:03:04.515Z,1000.05
2018-05-10T04:04:13.173Z,1000.01
2018-05-10T04:05:21.816Z,1000
2018-05-10T04:06:30.728Z,1000.03
2018-05-10T04:07:39.375Z,1000.03
2018-05-10T04:08:48.025Z,1000.08
2018-05-10T04:09:56.667Z,1000.1
2018-05-10T04:11:05.322Z,1000.08
2018-05-10T04:12:13.960Z,1000.14
2018-05-10T04:13:22.610Z,1000.16
2018-05-10T04:14:31.258Z,1000.17
2018-05-10T04:15:39.904Z,1000.21
2018-05-10T04:16:48.544Z,1000.27
2018-05-10T04:17:57.185Z,1000.24
2018-05-10T04:19:05.835Z,1000.27
2018-05-10T04:20:14.480Z,1000.28
2018-05-10T04:21:23.127Z,1000.29
2018-05-10T04:22:31.766Z,1000.3
2018-05-10T04:23:40.419Z,1000.32
2018-05-10T04:24:49.066Z,1000.35
2018-05-10T04:25:57.711Z,1000.33
2018-05-10T04:27:06.352Z,1000.31
2018-05-10T04:28:15.271Z,1000.32
2018-05-10T04:29:24.179Z,1000.34
2018-05-10T04:30:32.827Z,1000.31
2018-05-10T04:31:41.470Z,1000.31
2018-05-10T04:32:50.124Z,1000.3
2018-05-10T04:33:58.768Z,1000.3
2018-05-10T04:35:07.418Z,1000.31
2018-05-10T04:36:16.066Z,1000.34
2018-05-10T04:37:24.709Z,1000.38
2018-05-10T04:38:33.360Z,1000.33
2018-05-10T04:39:42.002Z,1000.37
2018-05-10T04:40:50.653Z,1000.26
2018-05-10T04:41:59.311Z,1000.39
2018-05-10T04:43:07.957Z,1000.37
2018-05-10T04:44:16.604Z,1000.38
2018-05-10T04:45:25.254Z,1000.41
2018-05-10T04:46:33.900Z,1000.42
2018-05-10T04:47:42.559Z,1000.45
2018-05-10T04:48:51.206Z,1000.46
2018-05-10T04:49:59.854Z,1000.48
2018-05-10T04:51:08.499Z,1000.51
2018-05-10T04:52:17.146Z,1000.49
2018-05-10T04:53:25.794Z,1000.54
2018-05-10T04:54:34.437Z,1000.63
2018-05-10T04:55:43.086Z,1000.65
2018-05-10T04:56:51.997Z,1000.66
2018-05-10T04:58:00.645Z,1000.7
2018-05-10T04:59:09.289Z,1000.77
2018-05-10T05:00:17.945Z,1000.79
2018-05-10T05:01:26.597Z,1000.83
2018-05-10T05:02:35.236Z,1000.87
2018-05-10T05:03:43.885Z,1000.86
2018-05-10T05:04:52.524Z,1000.97
2018-05-10T05:06:01.177Z,1000.91
2018-05-10T05:07:09.822Z,1000.94
2018-05-10T05:08:18.736Z,1000.9
2018-05-10T05:09:27.648Z,1000.94
2018-05-10T05:10:36.295Z,1000.97
2018-05-10T05:11:44.941Z,1000.98
2018-05-10T05:12:53.584Z,1000.98
2018-05-10T05:14:02.241Z,1000.96
2018-05-10T05:15:10.881Z,1001
2018-05-10T05:16:19.529Z,1000.98
2018-05-10T05:17:28.169Z,1001
2018-05-10T05:18:36.827Z,1001.03
2018-05-10T05:19:45.475Z,1001.02
2018-05-10T05:20:54.123Z,1000.96
2018-05-10T05:22:02.766Z,1000.99
2018-05-10T05:23:11.416Z,1000.98
2018-05-10T05:24:20.060Z,1001.03
2018-05-10T05:25:28.715Z,1001.01
2018-05-10T05:26:37.356Z,1001.02
2018-05-10T05:27:46.008Z,1001.01
2018-05-10T05:28:54.654Z,1001.03
2018-05-10T05:30:03.303Z,1001.03
2018-05-10T05:31:11.954Z,1001.09
2018-05-10T05:32:20.595Z,1001.14
2018-05-10T05:33:29.246Z,1001.15
2018-05-10T05:34:38.163Z,1001.25
2018-05-10T05:35:46.813Z,1001.27
2018-05-10T05:36:55.456Z,1001.33
2018-05-10T05:38:04.103Z,1001.42
2018-05-10T05:39:12.750Z,1001.47
2018-05-10T05:40:21.402Z,1001.52
2018-05-10T05:41:30.054Z,1001.52
2018-05-10T05:42:38.694Z,1001.52
2018-05-10T05:43:47.604Z,1001.51
2018-05-10T05:44:56.255Z,1001.56
2018-05-10T05:46:04.899Z,1001.57
2018-05-10T05:47:13.548Z,1001.64
2018-05-10T05:48:22.193Z,1001.72
2018-05-10T05:49:30.838Z,1001.73
2018-05-10T05:50:39.488Z,1001.72
2018-05-10T05:51:48.134Z,1001.76
2018-05-10T05:52:56.786Z,1001.78
2018-05-10T05:54:05.427Z,1001.79
2018-05-10T05:55:14.081Z,1001.77
2018-05-10T05:56:22.727Z,1001.79
2018-05-10T05:57:31.643Z,1001.79
2018-05-10T05:58:40.285Z,1001.8
2018-05-10T05:59:48.937Z,1001.76
2018-05-10T06:00:57.742Z,1001.71
2018-05-10T06:02:06.238Z,1001.74
2018-05-10T06:03:15.143Z,1001.71
2018-05-10T06:04:23.789Z,1001.7
2018-05-10T06:05:32.439Z,1001.68
2018-05-10T06:06:41.453Z,1001.59
2018-05-10T06:07:50.365Z,1001.61
2018-05-10T06:08:59.263Z,1001.59
2018-05-10T06:10:07.914Z,1001.54
2018-05-10T06:11:16.558Z,1001.51
2018-05-10T06:12:25.212Z,1001.44
2018-05-10T06:13:34.113Z,1001.46
2018-05-10T06:14:42.770Z,1001.36
2018-05-10T06:15:51.526Z,1001.37
2018-05-10T06:17:00.488Z,1001.29
2018-05-10T06:18:09.126Z,1001.23
2018-05-10T06:19:17.784Z,1001.08
2018-05-10T06:20:26.425Z,1001.05
2018-05-10T06:21:35.081Z,1001.01
2018-05-10T06:22:43.991Z,1000.91
2018-05-10T06:23:52.631Z,1000.94
2018-05-10T06:25:01.368Z,1000.94
2018-05-10T06:26:10.464Z,1001
2018-05-10T06:27:19.122Z,1001
2018-05-10T06:28:27.765Z,1001.1
2018-05-10T06:29:36.414Z,1001.13
2018-05-10T06:30:45.057Z,1001.16
2018-05-10T06:31:53.711Z,1001.24
2018-05-10T06:33:02.354Z,1001.25
2018-05-10T06:34:11.271Z,1001.32
2018-05-10T06:35:19.906Z,1001.41
2018-05-10T06:36:28.564Z,1001.47
2018-05-10T06:37:37.212Z,1001.57
2018-05-10T06:38:45.859Z,1001.66
2018-05-10T06:39:54.768Z,1001.73
2018-05-10T06:41:03.418Z,1001.8
2018-05-10T06:42:12.070Z,1001.83
2018-05-10T06:43:20.727Z,1001.88
2018-05-10T06:44:29.646Z,1001.91
2018-05-10T06:45:38.279Z,1001.92
2018-05-10T06:46:47.008Z,1001.97
2018-05-10T06:47:55.576Z,1001.93
2018-05-10T06:49:04.232Z,1001.94
2018-05-10T06:50:12.871Z,1001.94
2018-05-10T06:51:21.522Z,1001.94
2018-05-10T06:52:30.162Z,1001.97
2018-05-10T06:53:38.818Z,1001.99
2018-05-10T06:54:47.458Z,1002.01
2018-05-10T06:55:56.105Z,1002
2018-05-10T06:57:05.018Z,1002.07
2018-05-10T06:58:13.674Z,1002.07
2018-05-10T06:59:22.319Z,1002.11
2018-05-10T07:00:30.965Z,1002.11
2018-05-10T07:01:39.881Z,1002.17
2018-05-10T07:02:48.530Z,1002.17
2018-05-10T07:03:57.448Z,1002.18
2018-05-10T07:05:06.095Z,1002.19
2018-05-10T07:06:14.742Z,1002.23
2018-05-10T07:07:23.654Z,1002.27
2018-05-10T07:08:32.308Z,1002.32
2018-05-10T07:09:41.022Z,1002.31
2018-05-10T07:10:49.604Z,1002.37
2018-05-10T07:11:58.249Z,1002.41
2018-05-10T07:13:07.163Z,1002.43
2018-05-10T07:14:15.811Z,1002.39
2018-05-10T07:15:24.461Z,1002.44
2018-05-10T07:16:33.106Z,1002.42
2018-05-10T07:17:42.019Z,1002.4
2018-05-10T07:18:50.932Z,1002.42
2018-05-10T07:19:59.582Z,1002.43
2018-05-10T07:21:08.494Z,1002.41
2018-05-10T07:22:17.138Z,1002.41
2018-05-10T07:23:26.052Z,1002.4
2018-05-10T07:24:34.701Z,1002.41
2018-05-10T07:25:43.354Z,1002.39
2018-05-10T07:26:51.997Z,1002.38
2018-05-10T07:28:00.647Z,1002.38
2018-05-10T07:29:09.292Z,1002.44
2018-05-10T07:30:17.944Z,1002.41
2018-05-10T07:31:26.587Z,1002.45
2018-05-10T07:32:35.237Z,1002.47
2018-05-10T07:33:43.890Z,1002.5
2018-05-10T07:34:52.544Z,1002.46
2018-05-10T07:36:01.189Z,1002.5
2018-05-10T07:37:09.837Z,1002.56
2018-05-10T07:38:18.748Z,1002.51
2018-05-10T07:39:27.391Z,1002.54
2018-05-10T07:40:36.045Z,1002.57
2018-05-10T07:41:44.692Z,1002.58
2018-05-10T07:42:53.342Z,1002.59
2018-05-10T07:44:01.988Z,1002.6
2018-05-10T07:45:10.639Z,1002.6
2018-05-10T07:46:19.551Z,1002.64
2018-05-10T07:47:28.224Z,1002.65
2018-05-10T07:48:37.102Z,1002.65
2018-05-10T07:49:45.756Z,1002.66
2018-05-10T07:50:54.403Z,1002.7
2018-05-10T07:52:03.057Z,1002.67
2018-05-10T07:53:11.783Z,1002.67
2018-05-10T07:54:20.353Z,1002.69
2018-05-10T07:55:28.992Z,1002.79
2018-05-10T07:56:37.642Z,1002.76
2018-05-10T07:57:46.293Z,1002.72
2018-05-10T07:58:55.204Z,1002.78
2018-05-10T08:00:04.387Z,1002.8
2018-05-10T08:01:13.043Z,1002.8
2018-05-10T08:02:21.756Z,1002.78
2018-05-10T08:03:30.334Z,1002.84
2018-05-10T08:04:39.247Z,1002.89
2018-05-10T08:05:47.893Z,1002.91
2018-05-10T08:06:56.552Z,1002.9
2018-05-10T08:08:05.195Z,1002.87
2018-05-10T08:09:14.372Z,1002.91
2018-05-10T08:10:23.020Z,1002.97
2018-05-10T08:11:31.676Z,1002.99
2018-05-10T08:12:40.323Z,1003.06
2018-05-10T08:13:48.965Z,1003.1
2018-05-10T08:14:57.617Z,1003.05
2018-05-10T08:16:06.536Z,1003.08
2018-05-10T08:17:15.235Z,1003.11
2018-05-10T08:18:23.843Z,1003.14
2018-05-10T08:19:32.756Z,1003.14
2018-05-10T08:20:41.662Z,1003.15
2018-05-10T08:21:50.321Z,1003.16
2018-05-10T08:22:59.232Z,1003.12
2018-05-10T08:24:07.886Z,1003.11
2018-05-10T08:25:16.862Z,1003.11
2018-05-10T08:26:25.519Z,1003.11
2018-05-10T08:27:34.168Z,1003.13
2018-05-10T08:28:42.824Z,1003.17
2018-05-10T08:29:51.465Z,1003.19
2018-05-10T08:31:00.116Z,1003.21
2018-05-10T08:32:08.770Z,1003.18
2018-05-10T08:33:17.423Z,1003.19
2018-05-10T08:34:26.077Z,1003.25
2018-05-10T08:35:34.717Z,1003.26
2018-05-10T08:36:43.558Z,1003.21
2018-05-10T08:37:52.407Z,1003.26
2018-05-10T08:39:01.068Z,1003.21
2018-05-10T08:40:09.709Z,1003.27
2018-05-10T08:41:18.361Z,1003.34
2018-05-10T08:42:27.531Z,1003.33
2018-05-10T08:43:36.189Z,1003.29
2018-05-10T08:44:44.829Z,1003.31
2018-05-10T08:45:53.479Z,1003.33
2018-05-10T08:47:02.128Z,1003.32
2018-05-10T08:48:10.785Z,1003.31
2018-05-10T08:49:19.435Z,1003.32
2018-05-10T08:50:28.075Z,1003.25
2018-05-10T08:51:36.766Z,1003.24
2018-05-10T08:52:45.380Z,1003.27
2018-05-10T08:53:54.034Z,1003.27
2018-05-10T08:55:02.687Z,1003.33
2018-05-10T08:56:11.338Z,1003.34
2018-05-10T08:57:19.980Z,1003.34
2018-05-10T08:58:29.163Z,1003.3
2018-05-10T08:59:37.816Z,1003.37
2018-05-10T09:00:46.460Z,1003.4
2018-05-10T09:01:55.120Z,1003.39
2018-05-10T09:03:03.762Z,1003.4
2018-05-10T09:04:12.690Z,1003.45
2018-05-10T09:05:21.334Z,1003.48
2018-05-10T09:06:30.074Z,1003.46
2018-05-10T09:07:38.642Z,1003.43
2018-05-10T09:08:47.288Z,1003.45
2018-05-10T09:09:56.209Z,1003.43
2018-05-10T09:11:04.849Z,1003.43
2018-05-10T09:12:13.506Z,1003.43
2018-05-10T09:13:22.152Z,1003.43
2018-05-10T09:14:30.806Z,1003.45
2018-05-10T09:15:39.452Z,1003.4
2018-05-10T09:16:48.112Z,1003.43
2018-05-10T09:17:56.760Z,1003.48
2018-05-10T09:19:05.672Z,1003.46
2018-05-10T09:20:14.400Z,1003.47
2018-05-10T09:21:23.347Z,1003.5
2018-05-10T09:22:31.995Z,1003.52
2018-05-10T09:23:40.651Z,1003.55
2018-05-10T09:24:49.296Z,1003.58
2018-05-10T09:25:58.003Z,1003.58
2018-05-10T09:27:06.600Z,1003.61
2018-05-10T09:28:15.252Z,1003.62
2018-05-10T09:29:24.171Z,1003.62
2018-05-10T09:30:32.814Z,1003.66
2018-05-10T09:31:41.581Z,1003.66
2018-05-10T09:32:50.117Z,1003.66
2018-05-10T09:33:59.307Z,1003.72
2018-05-10T09:35:07.944Z,1003.76
2018-05-10T09:36:16.602Z,1003.77
2018-05-10T09:37:25.510Z,1003.81
2018-05-10T09:38:34.436Z,1003.84
2018-05-10T09:39:43.074Z,1003.88
2018-05-10T09:40:51.730Z,1003.9
2018-05-10T09:42:00.377Z,1003.88
2018-05-10T09:43:09.301Z,1003.89
2018-05-10T09:44:17.952Z,1003.92
2018-05-10T09:45:26.597Z,1003.93
2018-05-10T09:46:35.243Z,1003.9
2018-05-10T09:47:43.891Z,1003.95
2018-05-10T09:48:52.552Z,1003.92
2018-05-10T09:50:01.199Z,1003.99
2018-05-10T09:51:09.856Z,1003.95
2018-05-10T09:52:18.503Z,1003.97
2018-05-10T09:53:27.417Z,1003.99
2018-05-10T09:54:36.063Z,1003.95
2018-05-10T09:55:44.716Z,1004
2018-05-10T09:56:53.360Z,1004
2018-05-10T09:58:02.015Z,1003.99
2018-05-10T09:59:10.661Z,1004.03
2018-05-10T10:00:19.312Z,1004.11
2018-05-10T10:01:27.957Z,1004.11
2018-05-10T10:02:36.613Z,1004.19
2018-05-10T10:03:45.534Z,1004.17
2018-05-10T10:04:54.200Z,1004.22
2018-05-10T10:06:02.857Z,1004.21
2018-05-10T10:07:11.503Z,1004.3
2018-05-10T10:08:20.153Z,1004.32
2018-05-10T10:09:28.802Z,1004.35
2018-05-10T10:10:37.458Z,1004.43
2018-05-10T10:11:46.364Z,1004.48
2018-05-10T10:12:55.277Z,1004.52
2018-05-10T10:14:03.928Z,1004.55
2018-05-10T10:15:12.847Z,1004.54
2018-05-10T10:16:21.492Z,1004.57
2018-05-10T10:17:30.174Z,1004.55
2018-05-10T10:18:38.799Z,1004.57
2018-05-10T10:19:47.454Z,1004.56
2018-05-10T10:20:56.383Z,1004.56
2018-05-10T10:22:05.031Z,1004.62
2018-05-10T10:23:13.683Z,1004.61
2018-05-10T10:24:22.329Z,1004.66
2018-05-10T10:25:30.981Z,1004.67
2018-05-10T10:26:39.889Z,1004.67
2018-05-10T10:27:49.080Z,1004.68
2018-05-10T10:28:57.996Z,1004.68
2018-05-10T10:30:06.649Z,1004.7
2018-05-10T10:31:15.562Z,1004.73
2018-05-10T10:32:24.326Z,1004.77
2018-05-10T10:33:33.220Z,1004.81
2018-05-10T10:34:41.871Z,1004.89
2018-05-10T10:35:50.521Z,1004.9
2018-05-10T10:36:59.172Z,1004.93
2018-05-10T10:38:07.870Z,1004.97
2018-05-10T10:39:16.472Z,1005
2018-05-10T10:40:25.391Z,1005.03
2018-05-10T10:41:34.304Z,1005.03
2018-05-10T10:42:42.958Z,1005.03
2018-05-10T10:43:51.605Z,1005.06
2018-05-10T10:45:00.515Z,1005.07
2018-05-10T10:46:09.167Z,1005.08
2018-05-10T10:47:17.819Z,1005.04
2018-05-10T10:48:26.461Z,1005.1
2018-05-10T10:49:35.155Z,1005.09
2018-05-10T10:50:43.764Z,1005.17
2018-05-10T10:51:52.417Z,1005.17
2018-05-10T10:53:01.062Z,1005.2
2018-05-10T10:54:09.713Z,1005.24
2018-05-10T10:55:18.363Z,1005.23
2018-05-10T10:56:27.000Z,1005.28
2018-05-10T10:57:35.649Z,1005.31
2018-05-10T10:58:44.301Z,1005.28
2018-05-10T10:59:52.963Z,1005.31
2018-05-10T11:01:01.981Z,1005.33
2018-05-10T11:02:10.617Z,1005.36
2018-05-10T11:03:19.543Z,1005.36
2018-05-10T11:04:28.188Z,1005.43
2018-05-10T11:05:36.846Z,1005.43
2018-05-10T11:06:45.485Z,1005.48
2018-05-10T11:07:54.408Z,1005.49
2018-05-10T11:09:03.121Z,1005.46
2018-05-10T11:10:11.718Z,1005.49
2018-05-10T11:11:20.618Z,1005.43
2018-05-10T11:12:29.270Z,1005.48
2018-05-10T11:13:37.924Z,1005.51
2018-05-10T11:14:46.570Z,1005.52
2018-05-10T11:15:55.220Z,1005.53
2018-05-10T11:17:03.861Z,1005.53
2018-05-10T11:18:12.772Z,1005.55
2018-05-10T11:19:21.418Z,1005.59
2018-05-10T11:20:30.074Z,1005.58
2018-05-10T11:21:38.718Z,1005.58
2018-05-10T11:22:47.369Z,1005.64
2018-05-10T11:23:56.025Z,1005.65
2018-05-10T11:25:04.950Z,1005.65
2018-05-10T11:26:13.599Z,1005.65
2018-05-10T11:27:22.342Z,1005.7
2018-05-10T11:28:30.889Z,1005.71
2018-05-10T11:29:39.544Z,1005.73
2018-05-10T11:30:48.192Z,1005.74
2018-05-10T11:31:56.841Z,1005.74
2018-05-10T11:33:05.481Z,1005.83
2018-05-10T11:34:14.130Z,1005.84
2018-05-10T11:35:22.785Z,1005.86
2018-05-10T11:36:31.441Z,1005.87
2018-05-10T11:37:40.092Z,1005.93
2018-05-10T11:38:48.730Z,1005.96
2018-05-10T11:39:57.383Z,1006.01
2018-05-10T11:41:06.296Z,1006.04
2018-05-10T11:42:14.956Z,1006.07
2018-05-10T11:43:23.588Z,1006.13
2018-05-10T11:44:32.344Z,1006.11
2018-05-10T11:45:40.884Z,1006.11
2018-05-10T11:46:49.540Z,1006.12
2018-05-10T11:47:58.179Z,1006.16
2018-05-10T11:49:06.831Z,1006.18
2018-05-10T11:50:15.478Z,1006.18
2018-05-10T11:51:24.131Z,1006.18
2018-05-10T11:52:32.776Z,1006.21
2018-05-10T11:53:41.421Z,1006.2
2018-05-10T11:54:50.068Z,1006.27
2018-05-10T11:55:58.713Z,1006.28
2018-05-10T11:57:07.369Z,1006.29
2018-05-10T11:58:16.015Z,1006.33
2018-05-10T11:59:24.663Z,1006.35
2018-05-10T12:00:33.307Z,1006.39
2018-05-10T12:01:41.958Z,1006.44
2018-05-10T12:02:50.606Z,1006.46
2018-05-10T12:03:59.257Z,1006.48
2018-05-10T12:05:07.899Z,1006.47
2018-05-10T12:06:16.552Z,1006.53
2018-05-10T12:07:25.199Z,1006.54
2018-05-10T12:08:33.854Z,1006.54
2018-05-10T12:09:42.759Z,1006.56
2018-05-10T12:10:51.410Z,1006.58
2018-05-10T12:12:00.107Z,1006.62
2018-05-10T12:13:08.716Z,1006.59
2018-05-10T12:14:17.360Z,1006.64
2018-05-10T12:15:26.002Z,1006.67
2018-05-10T12:16:34.651Z,1006.66
2018-05-10T12:17:43.301Z,1006.67
2018-05-10T12:18:52.220Z,1006.69
2018-05-10T12:20:01.391Z,1006.7
2018-05-10T12:21:10.043Z,1006.73
2018-05-10T12:22:18.692Z,1006.69
2018-05-10T12:23:27.341Z,1006.69
2018-05-10T12:24:35.989Z,1006.69
2018-05-10T12:25:44.641Z,1006.72
2018-05-10T12:26:53.297Z,1006.72
2018-05-10T12:28:01.938Z,1006.71
2018-05-10T12:29:10.583Z,1006.72
2018-05-10T12:30:19.582Z,1006.75
2018-05-10T12:31:28.513Z,1006.81
2018-05-10T12:32:37.157Z,1006.8
2018-05-10T12:33:46.079Z,1006.79
2018-05-10T12:34:54.988Z,1006.83
2018-05-10T12:36:03.647Z,1006.85
2018-05-10T12:37:12.285Z,1006.85
2018-05-10T12:38:20.938Z,1006.84
2018-05-10T12:39:29.584Z,1006.85
2018-05-10T12:40:38.231Z,1006.89
2018-05-10T12:41:46.874Z,1006.91
2018-05-10T12:42:55.526Z,1006.95
2018-05-10T12:44:04.170Z,1006.94
2018-05-10T12:45:12.821Z,1006.96
2018-05-10T12:46:21.464Z,1006.95
2018-05-10T12:47:30.114Z,1006.96
2018-05-10T12:48:38.801Z,1006.96
2018-05-10T12:49:47.410Z,1006.99
2018-05-10T12:50:56.060Z,1006.96
2018-05-10T12:52:04.702Z,1006.95
2018-05-10T12:53:13.352Z,1006.97
2018-05-10T12:54:22.000Z,1006.99
2018-05-10T12:55:30.642Z,1007
2018-05-10T12:56:39.297Z,1007.07
2018-05-10T12:57:48.473Z,1007.04
2018-05-10T12:58:57.119Z,1007.01
2018-05-10T13:00:05.760Z,1007.03
2018-05-10T13:01:14.674Z,1007
2018-05-10T13:02:23.319Z,1007.06
2018-05-10T13:03:31.968Z,1007
2018-05-10T13:04:40.606Z,1007.01
2018-05-10T13:05:49.255Z,1007.04
2018-05-10T13:06:57.903Z,1007.05
2018-05-10T13:08:06.552Z,1007.02
2018-05-10T13:09:15.202Z,1007.04
2018-05-10T13:10:23.842Z,1007.05
2018-05-10T13:11:32.488Z,1007.04
2018-05-10T13:12:41.138Z,1007.05
2018-05-10T13:13:50.049Z,1007.07
2018-05-10T13:14:58.689Z,1007.07
2018-05-10T13:16:07.425Z,1007.1
2018-05-10T13:17:15.983Z,1007.09
2018-05-10T13:18:24.638Z,1007.14
2018-05-10T13:19:33.353Z,1007.14
2018-05-10T13:20:41.931Z,1007.14
2018-05-10T13:21:50.593Z,1007.13
2018-05-10T13:22:59.617Z,1007.13
2018-05-10T13:24:08.261Z,1007.2
2018-05-10T13:25:16.911Z,1007.22
2018-05-10T13:26:26.078Z,1007.21
2018-05-10T13:27:34.721Z,1007.22
2018-05-10T13:28:43.633Z,1007.24
2018-05-10T13:29:52.649Z,1007.24
2018-05-10T13:31:01.293Z,1007.33
2018-05-10T13:32:09.934Z,1007.29
2018-05-10T13:33:18.588Z,1007.32
2018-05-10T13:34:27.230Z,1007.31
2018-05-10T13:35:35.875Z,1007.33
2018-05-10T13:36:44.516Z,1007.38
2018-05-10T13:37:53.166Z,1007.36
2018-05-10T13:39:01.811Z,1007.4
2018-05-10T13:40:10.460Z,1007.37
2018-05-10T13:41:19.367Z,1007.36
2018-05-10T13:42:28.012Z,1007.35
2018-05-10T13:43:36.657Z,1007.32
2018-05-10T13:44:45.308Z,1007.35
2018-05-10T13:45:53.957Z,1007.36
2018-05-10T13:47:02.701Z,1007.32
2018-05-10T13:48:11.683Z,1007.35
2018-05-10T13:49:20.329Z,1007.35
2018-05-10T13:50:28.977Z,1007.37
2018-05-10T13:51:37.615Z,1007.38
2018-05-10T13:52:46.267Z,1007.39
2018-05-10T13:53:54.909Z,1007.39
2018-05-10T13:55:03.566Z,1007.42
2018-05-10T13:56:12.200Z,1007.43
2018-05-10T13:57:20.850Z,1007.46
2018-05-10T13:58:29.491Z,1007.52
2018-05-10T13:59:38.145Z,1007.51
2018-05-10T14:00:46.790Z,1007.51
2018-05-10T14:01:55.431Z,1007.52